Time;durP1;ratioP1;P1;durP2;ratioP2;P2;SDS_P1;SDS_P2;PMS_P1;PMS_P2;Temp;Humidity;BMP_temperature;BMP_pressure;BME280_temperature;BME280_humidity;BME280_pressure;Samples;Min_cycle;Max_cycle;Signal;HPM_P1;HPM_P2
2021/12/11 00:00:47;;;;;;;53.35;26.52;;;;;;;;;;5053742;28;20029;-82
2021/12/11 00:03:23;;;;;;;53.08;26.45;;;;;;;;;;5069239;28;20028;-81
2021/12/11 00:06:02;;;;;;;45.90;23.40;;;;;;;;;;5053889;28;20029;-82
2021/12/11 00:08:30;;;;;;;47.58;24.20;;;;;;;;;;5035854;28;20119;-82
2021/12/11 00:11:06;;;;;;;49.30;24.42;;;;;;;;;;5052436;28;20436;-82
2021/12/11 00:13:32;;;;;;;39.47;20.65;;;;;;;;;;5036249;28;20356;-82
2021/12/11 00:15:58;;;;;;;41.75;21.23;;;;;;;;;;5060703;28;20064;-82
2021/12/11 00:18:26;;;;;;;46.40;22.98;;;;;;;;;;5063018;28;20033;-82
2021/12/11 00:20:57;;;;;;;47.67;22.92;;;;;;;;;;5052631;28;20452;-81
2021/12/11 00:23:29;;;;;;;50.78;24.52;;;;;;;;;;5068788;28;20029;-81
2021/12/11 00:25:54;;;;;;;44.97;23.05;;;;;;;;;;5052371;28;20435;-82
2021/12/11 00:28:20;;;;;;;43.88;22.30;;;;;;;;;;5052397;28;20063;-82
2021/12/11 00:30:46;;;;;;;48.67;22.08;;;;;;;;;;5070789;28;20406;-82
2021/12/11 00:33:18;;;;;;;43.45;20.05;;;;;;;;;;5039463;28;20033;-82
2021/12/11 00:35:43;;;;;;;43.92;21.27;;;;;;;;;;5039450;28;20036;-82
2021/12/11 00:38:33;;;;;;;44.22;20.65;;;;;;;;;;5057042;28;20116;-81
2021/12/11 00:40:59;;;;;;;43.38;21.17;;;;;;;;;;5065129;28;20037;-82
2021/12/11 00:43:29;;;;;;;37.03;18.17;;;;;;;;;;5056968;28;20238;-82
2021/12/11 00:45:55;;;;;;;41.87;19.53;;;;;;;;;;5055828;28;20101;-83
2021/12/11 00:48:21;;;;;;;41.53;19.52;;;;;;;;;;5039340;28;20786;-82
2021/12/11 00:50:47;;;;;;;38.92;18.50;;;;;;;;;;5072143;28;20440;-82
2021/12/11 00:53:19;;;;;;;38.80;16.83;;;;;;;;;;5056516;28;20020;-82
2021/12/11 00:55:51;;;;;;;40.13;17.85;;;;;;;;;;5039106;28;20183;-83
2021/12/11 00:58:20;;;;;;;42.17;20.10;;;;;;;;;;5059220;28;20001;-82
2021/12/11 01:00:56;;;;;;;39.85;17.77;;;;;;;;;;5064616;28;20054;-82
2021/12/11 01:03:43;;;;;;;43.78;18.50;;;;;;;;;;5056855;28;20364;-82
2021/12/11 01:06:17;;;;;;;45.05;18.90;;;;;;;;;;5055867;28;20037;-82
2021/12/11 01:08:52;;;;;;;45.28;20.25;;;;;;;;;;5055176;28;20029;-82
2021/12/11 01:11:36;;;;;;;47.97;21.45;;;;;;;;;;5070907;28;20100;-83
2021/12/11 01:14:39;;;;;;;47.17;20.23;;;;;;;;;;5057157;28;20036;-83
2021/12/11 01:17:18;;;;;;;51.75;21.73;;;;;;;;;;5049460;28;20371;-83
2021/12/11 01:19:45;;;;;;;50.10;21.30;;;;;;;;;;5039160;28;20036;-82
2021/12/11 01:22:31;;;;;;;55.60;22.23;;;;;;;;;;5066263;28;20013;-82
2021/12/11 01:24:56;;;;;;;52.63;22.50;;;;;;;;;;5055270;28;20037;-82
2021/12/11 01:27:24;;;;;;;53.30;22.10;;;;;;;;;;5038562;28;20052;-82
2021/12/11 01:29:50;;;;;;;57.20;22.50;;;;;;;;;;5055012;28;20043;-82
2021/12/11 01:32:16;;;;;;;48.03;20.90;;;;;;;;;;5054880;28;20025;-83
2021/12/11 01:34:42;;;;;;;43.95;19.42;;;;;;;;;;5055028;28;20438;-83
2021/12/11 01:37:08;;;;;;;46.35;19.08;;;;;;;;;;5054687;28;20028;-83
2021/12/11 01:39:36;;;;;;;45.17;19.42;;;;;;;;;;5038093;28;20376;-82
2021/12/11 01:42:13;;;;;;;43.45;18.88;;;;;;;;;;5073701;28;20090;-82
2021/12/11 01:44:39;;;;;;;52.92;22.48;;;;;;;;;;5058297;28;20028;-83
2021/12/11 01:47:10;;;;;;;45.40;19.98;;;;;;;;;;5055704;28;20368;-83
2021/12/11 01:49:36;;;;;;;43.42;18.42;;;;;;;;;;5054259;28;20033;-83
2021/12/11 01:52:37;;;;;;;44.65;20.33;;;;;;;;;;5055565;28;20029;-83
2021/12/11 01:55:09;;;;;;;40.97;18.52;;;;;;;;;;5054446;28;20025;-83
2021/12/11 01:57:34;;;;;;;37.80;18.48;;;;;;;;;;5054231;28;20028;-83
2021/12/11 02:00:14;;;;;;;43.00;19.25;;;;;;;;;;5037964;28;20040;-83
2021/12/11 02:02:43;;;;;;;41.80;19.73;;;;;;;;;;5056540;28;20020;-82
2021/12/11 02:05:10;;;;;;;39.92;18.17;;;;;;;;;;5046974;28;20403;-83
2021/12/11 02:07:47;;;;;;;42.33;19.60;;;;;;;;;;5070844;28;20025;-84
2021/12/11 02:10:33;;;;;;;39.67;18.58;;;;;;;;;;5055110;28;20128;-83
2021/12/11 02:12:59;;;;;;;35.35;17.35;;;;;;;;;;5054310;28;20079;-83
2021/12/11 02:15:31;;;;;;;36.38;17.13;;;;;;;;;;5037453;28;20541;-83
2021/12/11 02:18:27;;;;;;;39.67;18.88;;;;;;;;;;5038314;28;20040;-82
2021/12/11 02:20:55;;;;;;;41.95;18.83;;;;;;;;;;5053812;28;20443;-83
2021/12/11 02:23:21;;;;;;;40.30;19.27;;;;;;;;;;5070245;28;20025;-83
2021/12/11 02:25:49;;;;;;;40.60;19.58;;;;;;;;;;5063685;28;20456;-83
2021/12/11 02:28:36;;;;;;;35.08;17.92;;;;;;;;;;5057303;28;20440;-83
2021/12/11 02:31:06;;;;;;;32.35;15.77;;;;;;;;;;5037335;28;20033;-83
2021/12/11 02:33:34;;;;;;;;;;;;;;;;;;5054547;28;20413;-83
2021/12/11 02:36:11;;;;;;;38.35;17.70;;;;;;;;;;5053760;28;19924;-83
2021/12/11 02:38:49;;;;;;;39.38;17.23;;;;;;;;;;5069945;28;20060;-83
2021/12/11 02:41:17;;;;;;;39.78;18.58;;;;;;;;;;5053769;28;20025;-83
2021/12/11 02:43:58;;;;;;;44.83;20.02;;;;;;;;;;5053629;28;20021;-82
2021/12/11 02:46:25;;;;;;;52.10;22.33;;;;;;;;;;5042988;28;20025;-83
2021/12/11 02:49:15;;;;;;;48.97;21.10;;;;;;;;;;5075961;28;20028;-82
2021/12/11 02:51:57;;;;;;;48.85;22.75;;;;;;;;;;5053498;28;20025;-84
2021/12/11 02:54:39;;;;;;;45.20;20.65;;;;;;;;;;5053035;28;20029;-83
2021/12/11 02:57:32;;;;;;;53.15;22.98;;;;;;;;;;5054599;28;20474;-83
2021/12/11 03:00:27;;;;;;;50.67;22.67;;;;;;;;;;5052637;28;20044;-83
2021/12/11 03:03:01;;;;;;;51.38;22.33;;;;;;;;;;5069540;28;20036;-82
2021/12/11 03:05:35;;;;;;;49.45;20.35;;;;;;;;;;5053149;28;20027;-82
2021/12/11 03:08:04;;;;;;;48.63;20.63;;;;;;;;;;5072878;28;20025;-82
2021/12/11 03:10:29;;;;;;;45.72;20.55;;;;;;;;;;5072348;28;20043;-82
2021/12/11 03:12:56;;;;;;;49.45;19.75;;;;;;;;;;5036637;28;20033;-82
2021/12/11 03:15:21;;;;;;;45.03;19.77;;;;;;;;;;5053493;28;20151;-83
2021/12/11 03:17:47;;;;;;;49.78;20.40;;;;;;;;;;5053997;28;20025;-82
2021/12/11 03:20:15;;;;;;;42.00;18.20;;;;;;;;;;5052981;28;20095;-82
2021/12/11 03:22:43;;;;;;;43.67;18.50;;;;;;;;;;5052890;28;20029;-83
2021/12/11 03:25:10;;;;;;;41.30;18.00;;;;;;;;;;5069457;28;20029;-82
2021/12/11 03:27:35;;;;;;;44.47;19.23;;;;;;;;;;5041958;28;20036;-83
2021/12/11 03:30:01;;;;;;;41.28;17.35;;;;;;;;;;5040043;28;20041;-83
2021/12/11 03:32:26;;;;;;;41.35;19.02;;;;;;;;;;5052841;28;20115;-83
2021/12/11 03:34:52;;;;;;;40.85;18.40;;;;;;;;;;5053075;28;20195;-83
2021/12/11 03:37:18;;;;;;;48.47;18.90;;;;;;;;;;5052743;28;20052;-83
2021/12/11 03:39:46;;;;;;;41.28;18.55;;;;;;;;;;5069089;28;20049;-83
2021/12/11 03:42:18;;;;;;;45.20;19.88;;;;;;;;;;5052741;28;20040;-83
2021/12/11 03:44:44;;;;;;;44.33;19.92;;;;;;;;;;5053029;28;20356;-83
2021/12/11 03:47:19;;;;;;;44.70;18.92;;;;;;;;;;5039832;28;20029;-83
2021/12/11 03:49:45;;;;;;;45.90;19.00;;;;;;;;;;5058113;28;20048;-83
2021/12/11 03:52:11;;;;;;;47.30;21.15;;;;;;;;;;5053756;28;20028;-83
2021/12/11 03:54:38;;;;;;;49.40;21.60;;;;;;;;;;5052632;28;20029;-83
2021/12/11 03:57:05;;;;;;;50.17;20.13;;;;;;;;;;5069039;28;20384;-83
2021/12/11 03:59:31;;;;;;;49.90;20.60;;;;;;;;;;5052563;28;20090;-83
2021/12/11 04:02:01;;;;;;;49.05;21.80;;;;;;;;;;5052633;28;20036;-81
2021/12/11 04:04:30;;;;;;;47.92;20.13;;;;;;;;;;5052549;28;20040;-82
2021/12/11 04:06:56;;;;;;;46.30;19.55;;;;;;;;;;5056141;28;20031;-81
2021/12/11 04:09:21;;;;;;;47.30;19.02;;;;;;;;;;5076179;28;20032;-82
2021/12/11 04:11:48;;;;;;;64.57;23.10;;;;;;;;;;5074231;28;20028;-82
2021/12/11 04:14:17;;;;;;;58.22;23.25;;;;;;;;;;5057867;28;20013;-82
2021/12/11 04:16:42;;;;;;;60.38;24.52;;;;;;;;;;5056904;28;20536;-82
2021/12/11 04:19:08;;;;;;;46.08;20.35;;;;;;;;;;5039977;28;20060;-82
2021/12/11 04:21:33;;;;;;;53.25;20.60;;;;;;;;;;5040602;28;20376;-82
2021/12/11 04:24:00;;;;;;;52.50;19.60;;;;;;;;;;5039459;28;20025;-82
2021/12/11 04:26:25;;;;;;;48.30;19.90;;;;;;;;;;5078061;28;20025;-81
2021/12/11 04:28:51;;;;;;;55.55;20.48;;;;;;;;;;5060945;28;20028;-82
2021/12/11 04:31:22;;;;;;;48.20;18.00;;;;;;;;;;5073698;28;20024;-81
2021/12/11 04:33:49;;;;;;;58.17;20.13;;;;;;;;;;5059125;28;20028;-82
2021/12/11 04:36:18;;;;;;;63.97;21.38;;;;;;;;;;5041298;28;20033;-82
2021/12/11 04:38:43;;;;;;;64.75;20.75;;;;;;;;;;5057222;28;20067;-82
2021/12/11 04:41:11;;;;;;;61.35;21.05;;;;;;;;;;5057390;28;20468;-82
2021/12/11 04:43:36;;;;;;;69.25;22.58;;;;;;;;;;5055970;28;20039;-82
2021/12/11 04:46:07;;;;;;;55.65;21.42;;;;;;;;;;5060164;28;20013;-85
2021/12/11 04:51:18;;;;;;;68.78;23.40;;;;;;;;;;5057163;28;20021;-83
2021/12/11 04:54:13;;;;;;;57.97;21.77;;;;;;;;;;5055460;28;20527;-82
2021/12/11 05:02:53;;;;;;;69.80;24.23;;;;;;;;;;5055626;28;20021;-82
2021/12/11 05:10:18;;;;;;;60.60;22.25;;;;;;;;;;5055326;28;20032;-83
2021/12/11 05:12:45;;;;;;;60.28;23.50;;;;;;;;;;5055166;28;20029;-83
2021/12/11 05:15:19;;;;;;;69.32;25.77;;;;;;;;;;5072728;28;20349;-83
2021/12/11 05:17:45;;;;;;;57.55;23.92;;;;;;;;;;5058453;28;20060;-83
2021/12/11 05:20:11;;;;;;;73.35;28.58;;;;;;;;;;5060467;28;20036;-83
2021/12/11 05:22:37;;;;;;;63.00;23.42;;;;;;;;;;5061026;28;20084;-83
2021/12/11 05:25:03;;;;;;;62.40;23.60;;;;;;;;;;5062205;28;20029;-83
2021/12/11 05:27:29;;;;;;;62.03;22.77;;;;;;;;;;5072010;28;20441;-83
2021/12/11 05:29:54;;;;;;;51.10;19.80;;;;;;;;;;5056176;28;20494;-83
2021/12/11 05:32:22;;;;;;;53.20;22.60;;;;;;;;;;5055811;28;20021;-82
2021/12/11 05:34:47;;;;;;;53.50;21.20;;;;;;;;;;5055646;28;20534;-83
2021/12/11 05:37:13;;;;;;;50.30;20.75;;;;;;;;;;5055332;28;20021;-82
2021/12/11 05:39:38;;;;;;;55.45;21.05;;;;;;;;;;5054668;28;20045;-83
2021/12/11 05:42:04;;;;;;;56.60;22.70;;;;;;;;;;5059268;28;20100;-82
2021/12/11 05:44:30;;;;;;;50.47;21.05;;;;;;;;;;5061031;28;20017;-84
2021/12/11 05:46:55;;;;;;;54.88;21.08;;;;;;;;;;5054830;28;20021;-83
2021/12/11 05:49:22;;;;;;;55.67;21.35;;;;;;;;;;5054676;28;20075;-82
2021/12/11 05:51:48;;;;;;;47.53;21.38;;;;;;;;;;5038323;28;20427;-83
2021/12/11 05:54:24;;;;;;;47.58;21.02;;;;;;;;;;5039016;28;20036;-82
2021/12/11 05:56:56;;;;;;;50.65;20.73;;;;;;;;;;5056248;28;20391;-82
2021/12/11 05:59:22;;;;;;;51.03;21.15;;;;;;;;;;5038994;28;20463;-82
2021/12/11 06:01:53;;;;;;;55.58;21.42;;;;;;;;;;5060294;28;20001;-83
2021/12/11 06:04:32;;;;;;;57.47;23.67;;;;;;;;;;5047089;28;20475;-81
2021/12/11 06:06:58;;;;;;;66.88;24.17;;;;;;;;;;5057002;28;20056;-84
2021/12/11 06:09:24;;;;;;;73.32;29.58;;;;;;;;;;5054173;28;20444;-82
2021/12/11 06:11:59;;;;;;;77.88;29.85;;;;;;;;;;5053837;28;20514;-82
2021/12/11 06:14:25;;;;;;;64.60;26.25;;;;;;;;;;5055246;28;20025;-82
2021/12/11 06:16:52;;;;;;;56.80;23.42;;;;;;;;;;5071758;28;20025;-82
2021/12/11 06:19:21;;;;;;;58.25;23.77;;;;;;;;;;5055242;28;20045;-80
2021/12/11 06:21:46;;;;;;;53.13;22.98;;;;;;;;;;5078010;28;20011;-80
2021/12/11 06:24:12;;;;;;;50.30;22.02;;;;;;;;;;5057863;28;20092;-80
2021/12/11 06:26:37;;;;;;;58.97;23.05;;;;;;;;;;5071795;28;20025;-82
2021/12/11 06:29:03;;;;;;;60.90;23.13;;;;;;;;;;5053562;28;20499;-81
2021/12/11 06:31:31;;;;;;;57.38;22.23;;;;;;;;;;5053707;28;20028;-81
2021/12/11 06:33:57;;;;;;;52.08;22.35;;;;;;;;;;5046885;28;20022;-82
2021/12/11 06:36:23;;;;;;;56.17;22.00;;;;;;;;;;5023369;28;20025;-82
2021/12/11 06:38:52;;;;;;;56.17;22.60;;;;;;;;;;5040907;28;20108;-82
2021/12/11 06:41:20;;;;;;;56.38;22.85;;;;;;;;;;5015070;28;20365;-81
2021/12/11 06:43:45;;;;;;;52.05;22.52;;;;;;;;;;5015750;28;20132;-82
2021/12/11 06:46:11;;;;;;;51.60;21.63;;;;;;;;;;5015004;28;20022;-82
2021/12/11 06:48:36;;;;;;;57.60;22.95;;;;;;;;;;5014992;28;20056;-82
2021/12/11 06:51:03;;;;;;;53.45;22.50;;;;;;;;;;5012616;28;20172;-83
2021/12/11 06:53:33;;;;;;;51.65;21.52;;;;;;;;;;4994850;28;20033;-82
2021/12/11 06:55:58;;;;;;;80.72;31.05;;;;;;;;;;5027984;28;20412;-82
2021/12/11 06:58:25;;;;;;;73.75;31.30;;;;;;;;;;5028659;28;20045;-82
2021/12/11 07:00:51;;;;;;;74.22;31.63;;;;;;;;;;5031670;28;20417;-83
2021/12/11 07:03:16;;;;;;;84.85;36.47;;;;;;;;;;4997859;28;20057;-82
2021/12/11 07:05:42;;;;;;;93.13;38.58;;;;;;;;;;5011432;28;20026;-82
2021/12/11 07:08:08;;;;;;;96.22;38.60;;;;;;;;;;5026070;28;20064;-83
2021/12/11 07:10:33;;;;;;;100.68;39.28;;;;;;;;;;5025643;28;20030;-83
2021/12/11 07:12:59;;;;;;;105.93;44.50;;;;;;;;;;5009637;28;20084;-84
2021/12/11 07:15:25;;;;;;;108.88;46.78;;;;;;;;;;5009539;28;20124;-83
2021/12/11 07:17:50;;;;;;;105.55;44.50;;;;;;;;;;5026346;28;20057;-83
2021/12/11 07:20:16;;;;;;;80.95;32.63;;;;;;;;;;5026973;28;20040;-80
2021/12/11 07:22:41;;;;;;;76.15;32.22;;;;;;;;;;5028645;28;20022;-83
2021/12/11 07:25:16;;;;;;;122.40;44.20;;;;;;;;;;5029166;28;20406;-82
2021/12/11 07:27:42;;;;;;;153.27;46.33;;;;;;;;;;5028830;28;20025;-81
2021/12/11 07:30:08;;;;;;;127.30;39.72;;;;;;;;;;5029566;28;20029;-80
2021/12/11 07:32:34;;;;;;;97.32;32.47;;;;;;;;;;5029380;28;20445;-80
2021/12/11 07:34:59;;;;;;;128.20;45.95;;;;;;;;;;5013353;28;20026;-81
2021/12/11 07:37:25;;;;;;;79.35;32.75;;;;;;;;;;5013174;28;20095;-81
2021/12/11 07:39:50;;;;;;;79.22;29.92;;;;;;;;;;5030372;28;20143;-82
2021/12/11 07:42:16;;;;;;;85.63;33.25;;;;;;;;;;5056913;28;20032;-82
2021/12/11 07:44:41;;;;;;;97.95;35.80;;;;;;;;;;5037334;28;20025;-82
2021/12/11 07:47:07;;;;;;;114.13;43.00;;;;;;;;;;5037202;28;20025;-82
2021/12/11 07:49:33;;;;;;;77.22;25.80;;;;;;;;;;5037965;28;20029;-82
2021/12/11 07:51:58;;;;;;;99.28;36.72;;;;;;;;;;5020981;28;20025;-82
2021/12/11 07:54:24;;;;;;;71.65;28.58;;;;;;;;;;5037785;28;20033;-82
2021/12/11 07:56:52;;;;;;;72.05;27.20;;;;;;;;;;5038017;28;20087;-82
2021/12/11 07:59:17;;;;;;;99.60;36.72;;;;;;;;;;5041621;28;20029;-82
2021/12/11 08:01:45;;;;;;;61.47;22.35;;;;;;;;;;5037884;28;20036;-81
2021/12/11 08:04:10;;;;;;;62.10;23.63;;;;;;;;;;5038877;28;20025;-82
2021/12/11 08:06:37;;;;;;;67.30;24.00;;;;;;;;;;5021576;28;20060;-82
2021/12/11 08:09:04;;;;;;;58.65;22.30;;;;;;;;;;5022451;28;20029;-83
2021/12/11 08:11:30;;;;;;;63.33;23.95;;;;;;;;;;5036979;28;20053;-84
2021/12/11 08:13:56;;;;;;;58.17;22.48;;;;;;;;;;5036741;28;20111;-82
2021/12/11 08:16:25;;;;;;;60.45;23.60;;;;;;;;;;5039544;28;20041;-83
2021/12/11 08:18:52;;;;;;;59.50;22.17;;;;;;;;;;5041297;28;20033;-82
2021/12/11 08:21:18;;;;;;;54.63;20.52;;;;;;;;;;5038004;28;20025;-83
2021/12/11 08:23:46;;;;;;;56.13;20.83;;;;;;;;;;5037268;28;20436;-83
2021/12/11 08:26:15;;;;;;;38.92;14.88;;;;;;;;;;5053153;28;20448;-83
2021/12/11 08:28:41;;;;;;;53.10;19.70;;;;;;;;;;5036325;28;20034;-83
2021/12/11 08:31:06;;;;;;;45.75;17.90;;;;;;;;;;5036178;28;20084;-83
2021/12/11 08:33:32;;;;;;;47.58;18.73;;;;;;;;;;5038832;28;20029;-83
2021/12/11 08:35:57;;;;;;;51.58;17.27;;;;;;;;;;5037087;28;20033;-83
2021/12/11 08:38:23;;;;;;;39.80;16.38;;;;;;;;;;5041028;28;20067;-83
2021/12/11 08:40:51;;;;;;;43.58;16.65;;;;;;;;;;5057919;28;20430;-83
2021/12/11 08:43:18;;;;;;;49.08;19.52;;;;;;;;;;5039589;28;20056;-83
2021/12/11 08:45:46;;;;;;;46.67;16.75;;;;;;;;;;5039189;28;20036;-83
2021/12/11 08:48:18;;;;;;;48.72;17.40;;;;;;;;;;5039047;28;20041;-83
2021/12/11 08:50:44;;;;;;;50.05;19.13;;;;;;;;;;5038877;28;20033;-82
2021/12/11 08:53:10;;;;;;;55.80;20.77;;;;;;;;;;5038144;28;20052;-83
2021/12/11 08:55:37;;;;;;;55.17;22.10;;;;;;;;;;5055379;28;20075;-83
2021/12/11 08:58:04;;;;;;;53.20;20.55;;;;;;;;;;5037589;28;20364;-83
2021/12/11 09:00:50;;;;;;;56.10;22.45;;;;;;;;;;5054802;28;20060;-84
2021/12/11 09:03:20;;;;;;;69.05;27.15;;;;;;;;;;5037995;28;20068;-83
2021/12/11 09:05:59;;;;;;;52.45;23.05;;;;;;;;;;5054924;28;20032;-81
2021/12/11 09:08:36;;;;;;;60.25;24.13;;;;;;;;;;5055309;28;20040;-83
2021/12/11 09:11:16;;;;;;;56.03;23.15;;;;;;;;;;5038981;28;20086;-84
2021/12/11 09:13:54;;;;;;;52.00;22.63;;;;;;;;;;5056423;28;20119;-81
2021/12/11 09:16:25;;;;;;;59.55;24.48;;;;;;;;;;5055628;28;20116;-80
2021/12/11 09:19:08;;;;;;;55.47;23.55;;;;;;;;;;5063441;28;20060;-82
2021/12/11 09:21:46;;;;;;;49.50;21.48;;;;;;;;;;5055133;28;20033;-81
2021/12/11 09:24:18;;;;;;;59.38;24.67;;;;;;;;;;5055442;28;20029;-81
2021/12/11 09:27:19;;;;;;;69.47;28.77;;;;;;;;;;5055163;28;20345;-81
2021/12/11 09:29:52;;;;;;;;;;;;;;;;;;5015077;28;20037;-81
2021/12/11 09:32:21;;;;;;;53.60;24.08;;;;;;;;;;5058830;28;19978;-81
2021/12/11 09:34:53;;;;;;;51.08;22.63;;;;;;;;;;5053244;28;20033;-80
2021/12/11 09:37:19;;;;;;;42.50;20.10;;;;;;;;;;5057366;28;20033;-82
2021/12/11 09:39:49;;;;;;;35.38;17.83;;;;;;;;;;5056521;28;20052;-82
2021/12/11 09:42:15;;;;;;;43.67;20.73;;;;;;;;;;5037756;28;20032;-81
2021/12/11 09:44:47;;;;;;;52.30;21.95;;;;;;;;;;5055900;28;20029;-81
2021/12/11 09:47:17;;;;;;;53.22;23.58;;;;;;;;;;5038000;28;20432;-82
2021/12/11 09:49:45;;;;;;;46.55;21.98;;;;;;;;;;5054227;28;20036;-82
2021/12/11 09:52:23;;;;;;;51.30;22.60;;;;;;;;;;5054591;28;20040;-82
2021/12/11 09:54:56;;;;;;;53.88;23.65;;;;;;;;;;5037361;28;20129;-82
2021/12/11 09:57:24;;;;;;;53.83;24.35;;;;;;;;;;5039980;28;20353;-82
2021/12/11 09:59:51;;;;;;;48.90;22.90;;;;;;;;;;5053744;28;20464;-82
2021/12/11 10:02:25;;;;;;;56.30;25.42;;;;;;;;;;5037423;28;20032;-82
2021/12/11 10:05:00;;;;;;;61.75;27.17;;;;;;;;;;5053896;28;20558;-83
2021/12/11 10:07:34;;;;;;;52.20;24.08;;;;;;;;;;5054464;28;20032;-82
2021/12/11 10:10:10;;;;;;;45.03;20.58;;;;;;;;;;5058725;28;20033;-82
2021/12/11 10:12:38;;;;;;;41.80;21.13;;;;;;;;;;5041006;28;20372;-82
2021/12/11 10:15:21;;;;;;;49.15;24.77;;;;;;;;;;5060815;28;20020;-81
2021/12/11 10:17:50;;;;;;;50.25;25.85;;;;;;;;;;5059347;28;20035;-81
2021/12/11 10:20:28;;;;;;;54.42;26.95;;;;;;;;;;5063931;28;20032;-81
2021/12/11 10:22:55;;;;;;;79.82;36.75;;;;;;;;;;5063694;28;20071;-82
2021/12/11 10:25:22;;;;;;;60.63;28.23;;;;;;;;;;5062582;28;20024;-81
2021/12/11 10:27:47;;;;;;;54.45;27.40;;;;;;;;;;5054810;28;20032;-82
2021/12/11 10:30:16;;;;;;;40.13;22.27;;;;;;;;;;5037221;28;20036;-81
2021/12/11 10:32:41;;;;;;;37.08;20.60;;;;;;;;;;5039394;28;20052;-81
2021/12/11 10:35:14;;;;;;;34.80;18.15;;;;;;;;;;5056350;28;20051;-81
2021/12/11 10:37:39;;;;;;;37.00;19.00;;;;;;;;;;5042596;28;20509;-82
2021/12/11 10:40:11;;;;;;;39.45;20.42;;;;;;;;;;5053329;28;20041;-82
2021/12/11 10:42:37;;;;;;;42.25;19.85;;;;;;;;;;5054594;28;20029;-81
2021/12/11 10:45:03;;;;;;;33.67;17.73;;;;;;;;;;5053324;28;20082;-81
2021/12/11 10:47:38;;;;;;;33.53;17.73;;;;;;;;;;5037010;28;20025;-81
2021/12/11 10:50:26;;;;;;;30.65;16.45;;;;;;;;;;5053277;28;20033;-81
2021/12/11 10:52:52;;;;;;;33.22;17.77;;;;;;;;;;5048494;28;20041;-81
2021/12/11 10:55:19;;;;;;;39.78;21.50;;;;;;;;;;5060109;28;20017;-82
2021/12/11 10:57:45;;;;;;;40.30;21.60;;;;;;;;;;5038205;28;20080;-82
2021/12/11 11:00:24;;;;;;;45.45;24.10;;;;;;;;;;5052232;28;20020;-81
2021/12/11 11:02:51;;;;;;;;;;;;;;;;;;5036238;28;20055;-81
2021/12/11 11:05:17;;;;;;;49.13;23.25;;;;;;;;;;5051949;28;19912;-82
2021/12/11 11:07:43;;;;;;;51.15;23.35;;;;;;;;;;5115961;22;20059;-77
2021/12/11 11:10:15;;;;;;;212.98;83.85;;;;;;;;;;5072623;28;20047;-77
2021/12/11 11:12:40;;;;;;;127.57;53.53;;;;;;;;;;5072805;28;20432;-77
2021/12/11 11:15:06;;;;;;;79.68;34.20;;;;;;;;;;5070826;28;20031;-77
2021/12/11 11:17:33;;;;;;;67.05;31.88;;;;;;;;;;5073157;28;20071;-78
2021/12/11 11:19:58;;;;;;;63.92;32.05;;;;;;;;;;5073241;28;20044;-77
2021/12/11 11:22:29;;;;;;;66.53;32.03;;;;;;;;;;5073720;28;20063;-78
2021/12/11 11:24:58;;;;;;;73.60;33.78;;;;;;;;;;5056177;28;20285;-77
2021/12/11 11:27:23;;;;;;;71.00;34.20;;;;;;;;;;5072669;28;20028;-77
2021/12/11 11:29:49;;;;;;;114.80;52.88;;;;;;;;;;5055860;28;20043;-76
2021/12/11 11:32:17;;;;;;;114.15;54.20;;;;;;;;;;5073348;28;20371;-77
2021/12/11 11:34:43;;;;;;;119.70;55.03;;;;;;;;;;5072880;28;20047;-77
2021/12/11 11:37:11;;;;;;;177.68;80.97;;;;;;;;;;5074016;28;20443;-77
2021/12/11 11:39:38;;;;;;;155.98;71.95;;;;;;;;;;5074199;28;20451;-78
2021/12/11 11:42:07;;;;;;;155.82;67.53;;;;;;;;;;5074388;28;20354;-77
2021/12/11 11:44:33;;;;;;;153.98;67.88;;;;;;;;;;5074050;28;20452;-77
2021/12/11 11:47:00;;;;;;;128.10;57.40;;;;;;;;;;5073511;28;20021;-77
2021/12/11 11:49:25;;;;;;;142.10;58.05;;;;;;;;;;5072949;28;20047;-76
2021/12/11 11:51:52;;;;;;;160.98;63.53;;;;;;;;;;5074190;28;20115;-77
2021/12/11 11:54:18;;;;;;;140.77;55.50;;;;;;;;;;5072708;28;20036;-76
2021/12/11 11:56:53;;;;;;;160.88;61.45;;;;;;;;;;5072670;28;20152;-77
2021/12/11 11:59:18;;;;;;;136.63;56.28;;;;;;;;;;5072530;28;20037;-77
2021/12/11 12:01:54;;;;;;;148.20;60.00;;;;;;;;;;5072548;28;20024;-77
2021/12/11 12:04:19;;;;;;;165.15;65.78;;;;;;;;;;5074060;28;20028;-77
2021/12/11 12:06:48;;;;;;;155.00;62.95;;;;;;;;;;5073710;28;20041;-76
2021/12/11 12:09:14;;;;;;;160.60;68.82;;;;;;;;;;5073384;28;20044;-78
2021/12/11 12:11:39;;;;;;;167.15;67.18;;;;;;;;;;5073858;28;20032;-78
2021/12/11 12:14:08;;;;;;;174.98;75.40;;;;;;;;;;5074376;28;20056;-77
2021/12/11 12:16:33;;;;;;;164.75;76.15;;;;;;;;;;5101438;28;20024;-76
2021/12/11 12:18:59;;;;;;;153.88;73.40;;;;;;;;;;5074574;28;20033;-77
2021/12/11 12:21:24;;;;;;;131.93;64.93;;;;;;;;;;5055655;28;20029;-76
2021/12/11 12:23:50;;;;;;;136.80;66.22;;;;;;;;;;5073422;28;20079;-77
2021/12/11 12:26:18;;;;;;;138.55;70.25;;;;;;;;;;5073684;28;20086;-77
2021/12/11 12:28:44;;;;;;;151.32;71.75;;;;;;;;;;5075885;28;20117;-77
2021/12/11 12:31:13;;;;;;;162.05;76.28;;;;;;;;;;5060064;28;20059;-77
2021/12/11 12:33:40;;;;;;;178.30;79.90;;;;;;;;;;5077603;28;20052;-77
2021/12/11 12:36:06;;;;;;;167.00;77.20;;;;;;;;;;5077677;28;20040;-77
2021/12/11 12:38:32;;;;;;;137.15;68.03;;;;;;;;;;5077155;28;20043;-78
2021/12/11 12:41:18;;;;;;;113.90;55.90;;;;;;;;;;5075865;28;20052;-77
2021/12/11 12:46:45;;;;;;;97.55;46.50;;;;;;;;;;5077478;28;20180;-77
2021/12/11 12:49:11;;;;;;;101.80;47.35;;;;;;;;;;5076902;28;20028;-77
2021/12/11 12:51:37;;;;;;;89.47;42.53;;;;;;;;;;5075699;28;20044;-77
2021/12/11 12:54:04;;;;;;;86.65;41.25;;;;;;;;;;5076243;28;20036;-78
2021/12/11 12:56:33;;;;;;;93.53;43.30;;;;;;;;;;5076490;28;20029;-78
2021/12/11 12:59:18;;;;;;;95.18;43.20;;;;;;;;;;5076700;28;20027;-78
2021/12/11 13:01:52;;;;;;;82.68;37.47;;;;;;;;;;5061121;28;20032;-77
2021/12/11 13:04:20;;;;;;;87.10;38.25;;;;;;;;;;5076535;28;20372;-78
2021/12/11 13:06:51;;;;;;;88.82;42.15;;;;;;;;;;5076923;28;20048;-77
2021/12/11 13:09:21;;;;;;;89.68;42.50;;;;;;;;;;5059605;28;20456;-76
2021/12/11 13:11:54;;;;;;;77.78;36.05;;;;;;;;;;5077182;28;20398;-77
2021/12/11 13:14:20;;;;;;;84.43;39.38;;;;;;;;;;5076499;28;20024;-78
2021/12/11 13:16:47;;;;;;;88.30;40.05;;;;;;;;;;5076458;28;20627;-78
2021/12/11 13:19:19;;;;;;;80.10;39.65;;;;;;;;;;5058658;28;20090;-77
2021/12/11 13:21:53;;;;;;;83.60;38.22;;;;;;;;;;5058494;28;20056;-77
2021/12/11 13:24:18;;;;;;;101.50;42.75;;;;;;;;;;5076643;28;20037;-78
2021/12/11 13:26:46;;;;;;;116.97;49.83;;;;;;;;;;5075917;28;20039;-77
2021/12/11 13:29:13;;;;;;;103.00;47.97;;;;;;;;;;5076159;28;20043;-78
2021/12/11 13:32:00;;;;;;;104.03;46.67;;;;;;;;;;5076123;28;20077;-78
2021/12/11 13:34:28;;;;;;;93.78;43.47;;;;;;;;;;5059935;28;20051;-77
2021/12/11 13:36:54;;;;;;;95.53;45.38;;;;;;;;;;5075988;28;20032;-78
2021/12/11 13:42:05;;;;;;;93.55;42.00;;;;;;;;;;5075681;28;20023;-77
2021/12/11 13:44:32;;;;;;;90.70;42.88;;;;;;;;;;5074725;28;20025;-78
2021/12/11 13:46:59;;;;;;;100.45;45.95;;;;;;;;;;5074671;28;20035;-77
2021/12/11 13:49:26;;;;;;;100.38;50.22;;;;;;;;;;5074602;28;20020;-78
2021/12/11 13:51:51;;;;;;;116.32;55.40;;;;;;;;;;5074830;28;20024;-78
2021/12/11 13:54:17;;;;;;;122.60;58.63;;;;;;;;;;5075745;28;20123;-78
2021/12/11 13:57:03;;;;;;;125.45;58.13;;;;;;;;;;5074422;28;20032;-78
2021/12/11 13:59:28;;;;;;;111.43;53.90;;;;;;;;;;5075526;28;20039;-77
2021/12/11 14:01:58;;;;;;;125.68;59.25;;;;;;;;;;5075755;28;20029;-78
2021/12/11 14:04:25;;;;;;;124.35;59.53;;;;;;;;;;5074607;28;20069;-77
2021/12/11 14:07:03;;;;;;;123.50;58.85;;;;;;;;;;5075517;28;20101;-77
2021/12/11 14:09:34;;;;;;;141.85;68.28;;;;;;;;;;5074963;28;20028;-78
2021/12/11 14:11:59;;;;;;;167.15;83.40;;;;;;;;;;5074188;28;20025;-77
2021/12/11 14:14:25;;;;;;;168.10;82.97;;;;;;;;;;5074265;28;20036;-77
2021/12/11 14:16:51;;;;;;;171.85;85.97;;;;;;;;;;5057661;28;20032;-78
2021/12/11 14:19:17;;;;;;;194.18;99.03;;;;;;;;;;5073895;28;20032;-77
2021/12/11 14:21:43;;;;;;;193.02;102.15;;;;;;;;;;5073892;28;20039;-77
2021/12/11 14:24:08;;;;;;;193.88;105.13;;;;;;;;;;5075157;28;20033;-77
2021/12/11 14:26:35;;;;;;;168.80;89.28;;;;;;;;;;5075365;28;20040;-77
2021/12/11 14:29:03;;;;;;;160.82;81.03;;;;;;;;;;5057563;28;20442;-78
2021/12/11 14:31:29;;;;;;;182.23;93.07;;;;;;;;;;5074917;28;20035;-77
2021/12/11 14:33:54;;;;;;;155.05;85.80;;;;;;;;;;5074831;28;20024;-78
2021/12/11 14:36:22;;;;;;;124.07;67.20;;;;;;;;;;5074764;28;20024;-78
2021/12/11 14:38:48;;;;;;;113.72;59.75;;;;;;;;;;5074835;28;20103;-78
2021/12/11 14:41:14;;;;;;;93.75;52.40;;;;;;;;;;5073795;28;20424;-77
2021/12/11 14:43:40;;;;;;;93.20;47.85;;;;;;;;;;5074989;28;20111;-78
2021/12/11 14:46:06;;;;;;;102.97;55.42;;;;;;;;;;5074969;28;20052;-77
2021/12/11 14:48:31;;;;;;;82.15;44.25;;;;;;;;;;5073425;28;20028;-78